Time;durP1;ratioP1;P1;durP2;ratioP2;P2;SDS_P1;SDS_P2;PMS_P1;PMS_P2;Temp;Humidity;BMP_temperature;BMP_pressure;BME280_temperature;BME280_humidity;BME280_pressure;Samples;Min_cycle;Max_cycle;Signal;HPM_P1;HPM_P2
2023/11/28 00:01:05;;;;;;;10.30;4.77;;;;;;;;;;5037129;28;20025;-65
2023/11/28 00:03:34;;;;;;;10.37;4.87;;;;;;;;;;5039777;28;20432;-67
2023/11/28 00:05:59;;;;;;;8.13;4.37;;;;;;;;;;5033331;28;20021;-68
2023/11/28 00:08:28;;;;;;;8.00;4.10;;;;;;;;;;5037878;28;20351;-70
2023/11/28 00:10:53;;;;;;;6.80;3.63;;;;;;;;;;5039427;28;20617;-68
2023/11/28 00:13:19;;;;;;;6.50;3.30;;;;;;;;;;5040947;28;20076;-67
2023/11/28 00:15:44;;;;;;;7.97;4.43;;;;;;;;;;5037989;28;20043;-67
2023/11/28 00:18:09;;;;;;;7.90;4.40;;;;;;;;;;5039983;28;20365;-67
2023/11/28 00:20:35;;;;;;;7.43;3.10;;;;;;;;;;5041294;28;20013;-66
2023/11/28 00:23:00;;;;;;;8.57;4.50;;;;;;;;;;5038296;28;20124;-67
2023/11/28 00:25:25;;;;;;;6.87;3.23;;;;;;;;;;5037732;28;20024;-66
2023/11/28 00:27:51;;;;;;;10.73;4.40;;;;;;;;;;5034446;28;20013;-66
2023/11/28 00:30:16;;;;;;;5.30;2.63;;;;;;;;;;5037334;28;20067;-66
2023/11/28 00:32:44;;;;;;;7.23;3.73;;;;;;;;;;5034632;28;20017;-66
2023/11/28 00:35:09;;;;;;;11.23;4.00;;;;;;;;;;5040206;28;20503;-66
2023/11/28 00:37:35;;;;;;;7.73;3.37;;;;;;;;;;5037846;28;20025;-70
2023/11/28 00:40:04;;;;;;;9.00;2.97;;;;;;;;;;5032403;28;20556;-66
2023/11/28 00:42:29;;;;;;;8.40;3.73;;;;;;;;;;5040381;28;20021;-66
2023/11/28 00:44:54;;;;;;;9.17;3.53;;;;;;;;;;5033496;28;20024;-66
2023/11/28 00:47:19;;;;;;;6.03;2.23;;;;;;;;;;5041456;28;20125;-65
2023/11/28 00:49:45;;;;;;;11.77;4.40;;;;;;;;;;5040566;28;20122;-66
2023/11/28 00:52:11;;;;;;;6.87;3.63;;;;;;;;;;5035727;28;20029;-67
2023/11/28 00:54:38;;;;;;;9.37;3.50;;;;;;;;;;5039594;28;20064;-65
2023/11/28 00:57:03;;;;;;;6.60;3.03;;;;;;;;;;5034720;28;20071;-66
2023/11/28 00:59:28;;;;;;;9.53;4.20;;;;;;;;;;5033010;28;20048;-65
2023/11/28 01:01:54;;;;;;;9.63;4.10;;;;;;;;;;5033761;28;20108;-65
2023/11/28 01:04:19;;;;;;;8.37;3.83;;;;;;;;;;5037784;28;20490;-65
2023/11/28 01:06:44;;;;;;;9.17;3.93;;;;;;;;;;5037822;28;20033;-65
2023/11/28 01:09:09;;;;;;;11.83;4.37;;;;;;;;;;5035516;28;20025;-65
2023/11/28 01:11:35;;;;;;;10.30;4.00;;;;;;;;;;5037127;28;20021;-65
2023/11/28 01:14:00;;;;;;;8.90;3.60;;;;;;;;;;5035673;28;20025;-64
2023/11/28 01:16:25;;;;;;;9.50;4.20;;;;;;;;;;5031903;28;20467;-65
2023/11/28 01:18:50;;;;;;;9.37;3.50;;;;;;;;;;5039366;28;20027;-64
2023/11/28 01:21:16;;;;;;;12.53;4.90;;;;;;;;;;5035629;28;20484;-65
2023/11/28 01:23:41;;;;;;;7.43;3.40;;;;;;;;;;5040845;28;20044;-64
2023/11/28 01:26:06;;;;;;;10.67;3.87;;;;;;;;;;5036146;28;20042;-65
2023/11/28 01:28:31;;;;;;;9.67;4.50;;;;;;;;;;5041295;28;20056;-65
2023/11/28 01:30:57;;;;;;;8.90;3.33;;;;;;;;;;5040958;28;20024;-63
2023/11/28 01:33:22;;;;;;;8.60;3.17;;;;;;;;;;5040583;28;20064;-62
2023/11/28 01:35:48;;;;;;;11.80;3.90;;;;;;;;;;5032594;28;20049;-61
2023/11/28 01:38:13;;;;;;;12.67;4.50;;;;;;;;;;5037510;28;20060;-62
2023/11/28 01:40:38;;;;;;;8.73;3.97;;;;;;;;;;5040514;28;20024;-61
2023/11/28 01:43:04;;;;;;;11.13;3.43;;;;;;;;;;5032392;28;20052;-63
2023/11/28 01:45:29;;;;;;;10.10;3.53;;;;;;;;;;5039260;28;20128;-62
2023/11/28 01:47:56;;;;;;;9.43;4.03;;;;;;;;;;5031373;28;20033;-63
2023/11/28 01:50:21;;;;;;;9.53;3.70;;;;;;;;;;5038820;28;20075;-63
2023/11/28 01:52:47;;;;;;;11.00;3.60;;;;;;;;;;5033142;28;20053;-62
2023/11/28 01:55:12;;;;;;;10.73;4.10;;;;;;;;;;5033389;28;20052;-61
2023/11/28 01:57:38;;;;;;;8.33;3.73;;;;;;;;;;5039890;28;20021;-60
2023/11/28 02:00:04;;;;;;;7.47;3.07;;;;;;;;;;5032839;28;20033;-60
2023/11/28 02:02:29;;;;;;;7.37;3.50;;;;;;;;;;5038682;28;20026;-61
2023/11/28 02:04:55;;;;;;;8.57;3.83;;;;;;;;;;5032949;28;20445;-62
2023/11/28 02:07:21;;;;;;;8.10;3.90;;;;;;;;;;5031417;28;20033;-61
2023/11/28 02:09:46;;;;;;;8.00;3.10;;;;;;;;;;5035695;28;20052;-63
2023/11/28 02:12:12;;;;;;;9.90;3.43;;;;;;;;;;5030409;28;20052;-61
2023/11/28 02:14:43;;;;;;;8.40;3.33;;;;;;;;;;5038395;28;20036;-61
2023/11/28 02:17:08;;;;;;;10.93;2.78;;;;;;;;;;5034573;28;20025;-62
2023/11/28 02:19:34;;;;;;;8.13;3.00;;;;;;;;;;5034343;28;20546;-60
2023/11/28 02:21:59;;;;;;;8.80;3.07;;;;;;;;;;5035469;28;20049;-60
2023/11/28 02:24:25;;;;;;;7.60;2.67;;;;;;;;;;5039306;28;20021;-61
2023/11/28 02:26:50;;;;;;;6.23;2.97;;;;;;;;;;5031968;28;20663;-61
2023/11/28 02:29:15;;;;;;;7.57;2.50;;;;;;;;;;5038394;28;20029;-61
2023/11/28 02:31:41;;;;;;;6.53;2.60;;;;;;;;;;5037224;28;20494;-62
2023/11/28 02:34:06;;;;;;;6.77;2.93;;;;;;;;;;5037315;28;20163;-60
2023/11/28 02:36:31;;;;;;;5.83;2.70;;;;;;;;;;5037080;28;20021;-61
2023/11/28 02:38:56;;;;;;;7.47;2.60;;;;;;;;;;5039501;28;20673;-62
2023/11/28 02:41:22;;;;;;;5.23;2.40;;;;;;;;;;5037736;28;20108;-66
2023/11/28 02:43:47;;;;;;;5.63;2.90;;;;;;;;;;5035839;28;20032;-68
2023/11/28 02:46:12;;;;;;;5.83;2.57;;;;;;;;;;5035108;28;20072;-65
2023/11/28 02:48:39;;;;;;;5.57;2.47;;;;;;;;;;5040520;28;20507;-66
2023/11/28 02:51:04;;;;;;;4.73;2.10;;;;;;;;;;5029020;28;20101;-66
2023/11/28 02:53:30;;;;;;;5.20;2.37;;;;;;;;;;5041165;28;20092;-66
2023/11/28 02:55:55;;;;;;;5.47;2.30;;;;;;;;;;5034034;28;20017;-68
2023/11/28 02:58:20;;;;;;;4.47;1.90;;;;;;;;;;5035573;28;20021;-67
2023/11/28 03:00:45;;;;;;;5.30;2.40;;;;;;;;;;5040059;28;20028;-65
2023/11/28 03:03:11;;;;;;;4.63;2.30;;;;;;;;;;5029649;28;20017;-67
2023/11/28 03:05:36;;;;;;;5.17;2.33;;;;;;;;;;5034502;28;20059;-68
2023/11/28 03:08:01;;;;;;;4.80;2.10;;;;;;;;;;5031347;28;20028;-65
2023/11/28 03:10:27;;;;;;;4.60;2.17;;;;;;;;;;5035923;28;20025;-68
2023/11/28 03:12:52;;;;;;;5.37;2.27;;;;;;;;;;5036127;28;20032;-68
2023/11/28 03:15:17;;;;;;;4.93;2.40;;;;;;;;;;5035967;28;20358;-67
2023/11/28 03:17:42;;;;;;;4.73;2.20;;;;;;;;;;5035349;28;20128;-63
2023/11/28 03:20:09;;;;;;;5.53;2.80;;;;;;;;;;5040440;28;20033;-67
2023/11/28 03:22:34;;;;;;;5.47;2.80;;;;;;;;;;5040333;28;20131;-65
2023/11/28 03:25:11;;;;;;;6.20;2.87;;;;;;;;;;5038128;28;20093;-67
2023/11/28 03:27:36;;;;;;;6.07;2.90;;;;;;;;;;5043831;28;20427;-67
2023/11/28 03:30:02;;;;;;;6.50;2.90;;;;;;;;;;5038282;28;20108;-68
2023/11/28 03:32:27;;;;;;;6.50;2.93;;;;;;;;;;5042982;28;20574;-66
2023/11/28 06:50:54;;;;;;;5.70;3.33;;;;;;;;;;3319361;28;20101;-61
2023/11/28 06:53:19;;;;;;;8.83;3.30;;;;;;;;;;5040505;28;20494;-62
2023/11/28 06:55:44;;;;;;;6.57;3.03;;;;;;;;;;5039987;28;20020;-60
2023/11/28 06:58:10;;;;;;;6.67;3.20;;;;;;;;;;5040773;28;20037;-61
2023/11/28 07:00:35;;;;;;;7.43;3.17;;;;;;;;;;5040160;28;20021;-62
2023/11/28 07:03:01;;;;;;;7.37;3.60;;;;;;;;;;5041887;28;20021;-60
2023/11/28 07:05:26;;;;;;;8.57;3.70;;;;;;;;;;5040203;28;20021;-62
2023/11/28 07:07:52;;;;;;;5.53;3.33;;;;;;;;;;5039443;28;20373;-62
2023/11/28 07:10:17;;;;;;;6.93;3.90;;;;;;;;;;5037357;28;20033;-62
2023/11/28 07:12:42;;;;;;;6.27;3.53;;;;;;;;;;5038877;28;20017;-61
2023/11/28 07:15:08;;;;;;;6.93;3.70;;;;;;;;;;5037140;28;20021;-61
2023/11/28 07:17:33;;;;;;;6.83;3.33;;;;;;;;;;5037034;28;20017;-62
2023/11/28 07:19:59;;;;;;;7.60;3.60;;;;;;;;;;5039742;28;20067;-62
2023/11/28 07:22:24;;;;;;;5.87;3.33;;;;;;;;;;5035852;28;20116;-67
2023/11/28 07:24:49;;;;;;;6.70;3.60;;;;;;;;;;5040705;28;20048;-66
2023/11/28 07:27:15;;;;;;;5.67;3.23;;;;;;;;;;5033677;28;20025;-66
2023/11/28 07:29:40;;;;;;;6.70;3.33;;;;;;;;;;5039245;28;20059;-67
2023/11/28 07:32:05;;;;;;;9.20;3.23;;;;;;;;;;5035097;28;20028;-66
2023/11/28 07:34:30;;;;;;;5.50;3.20;;;;;;;;;;5037081;28;20024;-67
2023/11/28 07:36:56;;;;;;;6.30;3.57;;;;;;;;;;5040054;28;20029;-65
2023/11/28 07:39:21;;;;;;;5.87;3.07;;;;;;;;;;5032100;28;20091;-65
2023/11/28 07:41:46;;;;;;;6.83;2.73;;;;;;;;;;5036063;28;20370;-67
2023/11/28 07:44:11;;;;;;;8.60;3.10;;;;;;;;;;5044272;28;20025;-66
2023/11/28 07:46:37;;;;;;;7.17;3.37;;;;;;;;;;5039248;28;20029;-66
2023/11/28 07:49:02;;;;;;;6.33;3.07;;;;;;;;;;5037368;28;20104;-66
2023/11/28 07:51:27;;;;;;;5.60;3.10;;;;;;;;;;5038728;28;20473;-65
2023/11/28 07:53:53;;;;;;;5.77;3.17;;;;;;;;;;5043239;28;20021;-66
2023/11/28 07:56:18;;;;;;;7.40;3.67;;;;;;;;;;5039605;28;20029;-67
2023/11/28 07:58:43;;;;;;;6.03;3.23;;;;;;;;;;5035030;28;20032;-67
2023/11/28 08:01:09;;;;;;;5.80;3.07;;;;;;;;;;5033690;28;20040;-65
2023/11/28 08:03:34;;;;;;;7.63;3.00;;;;;;;;;;5041429;28;20025;-65
2023/11/28 08:06:03;;;;;;;7.63;3.17;;;;;;;;;;5038535;28;20271;-67
2023/11/28 08:08:28;;;;;;;6.83;3.20;;;;;;;;;;5035658;28;20030;-67
2023/11/28 08:10:53;;;;;;;6.67;3.47;;;;;;;;;;5036670;28;20040;-66
2023/11/28 08:13:19;;;;;;;6.20;3.73;;;;;;;;;;5039558;28;20107;-67
2023/11/28 08:15:44;;;;;;;7.13;3.80;;;;;;;;;;5034749;28;20033;-66
2023/11/28 08:18:11;;;;;;;6.10;3.23;;;;;;;;;;5036318;28;20408;-67
2023/11/28 08:20:36;;;;;;;6.77;3.43;;;;;;;;;;5037038;28;20108;-68
2023/11/28 08:23:01;;;;;;;8.00;3.70;;;;;;;;;;5037158;28;20104;-67
2023/11/28 08:25:27;;;;;;;7.97;3.47;;;;;;;;;;5034277;28;20036;-68
2023/11/28 08:27:52;;;;;;;5.87;3.40;;;;;;;;;;5037520;28;20036;-67
2023/11/28 08:30:18;;;;;;;8.23;3.00;;;;;;;;;;5040434;28;20056;-66
2023/11/28 08:32:43;;;;;;;7.23;3.40;;;;;;;;;;5039642;28;20013;-68
2023/11/28 08:35:08;;;;;;;7.17;3.50;;;;;;;;;;5032985;28;20048;-67
2023/11/28 08:37:34;;;;;;;6.00;3.40;;;;;;;;;;5032364;28;20028;-68
2023/11/28 08:39:59;;;;;;;7.47;4.00;;;;;;;;;;5039722;28;20668;-69
2023/11/28 08:42:24;;;;;;;7.90;3.27;;;;;;;;;;5042402;28;20039;-68
2023/11/28 08:44:50;;;;;;;6.00;2.90;;;;;;;;;;5032031;28;20063;-67
2023/11/28 08:47:15;;;;;;;5.50;2.70;;;;;;;;;;5035754;28;20445;-69
2023/11/28 08:49:44;;;;;;;6.63;3.23;;;;;;;;;;5033899;28;20029;-66
2023/11/28 08:52:10;;;;;;;5.63;2.87;;;;;;;;;;5037115;28;20103;-69
2023/11/28 08:54:35;;;;;;;6.23;3.07;;;;;;;;;;5035184;28;20025;-70
2023/11/28 08:57:01;;;;;;;6.10;3.10;;;;;;;;;;5033006;28;20552;-68
2023/11/28 08:59:26;;;;;;;4.97;2.77;;;;;;;;;;5034108;28;20048;-68
2023/11/28 09:01:51;;;;;;;7.57;2.90;;;;;;;;;;5039244;28;20048;-66
2023/11/28 09:04:17;;;;;;;6.27;2.73;;;;;;;;;;5040543;28;20091;-68
2023/11/28 09:06:42;;;;;;;6.43;2.83;;;;;;;;;;5034887;28;20032;-68
2023/11/28 09:09:09;;;;;;;4.60;2.60;;;;;;;;;;5031897;28;20248;-69
2023/11/28 09:11:34;;;;;;;7.97;2.90;;;;;;;;;;5039408;28;20461;-69
2023/11/28 09:13:59;;;;;;;4.23;2.30;;;;;;;;;;5034582;28;20040;-70
2023/11/28 09:16:25;;;;;;;4.60;2.50;;;;;;;;;;5036550;28;20028;-66
2023/11/28 09:18:51;;;;;;;4.50;2.60;;;;;;;;;;5035349;28;20029;-67
2023/11/28 09:21:16;;;;;;;4.90;2.77;;;;;;;;;;5035995;28;20048;-66
2023/11/28 09:23:42;;;;;;;7.83;2.50;;;;;;;;;;5035302;28;20359;-65
2023/11/28 09:26:07;;;;;;;4.53;2.40;;;;;;;;;;5034582;28;20361;-69
2023/11/28 09:28:34;;;;;;;10.13;2.67;;;;;;;;;;5038110;28;20079;-69
2023/11/28 09:30:59;;;;;;;4.67;2.80;;;;;;;;;;5037637;28;20051;-68
2023/11/28 09:33:25;;;;;;;4.83;2.70;;;;;;;;;;5034529;28;20029;-70
2023/11/28 09:35:50;;;;;;;5.73;2.40;;;;;;;;;;5036825;28;20028;-70
2023/11/28 09:38:15;;;;;;;8.13;2.17;;;;;;;;;;5037357;28;20043;-68
2023/11/28 09:40:40;;;;;;;5.83;2.43;;;;;;;;;;5036144;28;20025;-61
2023/11/28 09:43:06;;;;;;;4.80;2.57;;;;;;;;;;5037065;28;20531;-64
2023/11/28 09:45:35;;;;;;;7.37;2.03;;;;;;;;;;5035477;28;20039;-63
2023/11/28 09:48:06;;;;;;;5.23;2.20;;;;;;;;;;5038952;28;20024;-61
2023/11/28 09:50:31;;;;;;;7.67;2.00;;;;;;;;;;5039687;28;20109;-61
2023/11/28 09:52:57;;;;;;;6.43;2.33;;;;;;;;;;5038643;28;20524;-64
2023/11/28 09:55:23;;;;;;;5.87;2.33;;;;;;;;;;5029717;28;20021;-62
2023/11/28 09:57:50;;;;;;;5.47;2.50;;;;;;;;;;5033359;28;20468;-63
2023/11/28 10:00:17;;;;;;;4.90;2.50;;;;;;;;;;5035576;28;20021;-60
2023/11/28 10:02:42;;;;;;;7.77;2.60;;;;;;;;;;5037481;28;20033;-60
2023/11/28 10:05:08;;;;;;;4.37;2.37;;;;;;;;;;5038548;28;20469;-64
2023/11/28 10:07:33;;;;;;;5.23;3.27;;;;;;;;;;5030512;28;20029;-61
2023/11/28 10:09:59;;;;;;;5.13;2.43;;;;;;;;;;5040002;28;20244;-62
2023/11/28 10:12:25;;;;;;;4.97;2.53;;;;;;;;;;5035140;28;20025;-63
2023/11/28 10:14:50;;;;;;;5.43;2.67;;;;;;;;;;5035515;28;20025;-62
2023/11/28 10:17:16;;;;;;;5.07;2.67;;;;;;;;;;5034371;28;20032;-61
2023/11/28 10:19:43;;;;;;;6.43;2.80;;;;;;;;;;5034866;28;20099;-61
2023/11/28 10:22:09;;;;;;;6.50;3.20;;;;;;;;;;5034717;28;20471;-62
2023/11/28 10:24:34;;;;;;;6.17;3.00;;;;;;;;;;5035184;28;20113;-61
2023/11/28 10:27:00;;;;;;;5.80;2.93;;;;;;;;;;5034448;28;20332;-62
2023/11/28 10:29:28;;;;;;;6.43;3.57;;;;;;;;;;5037974;28;20484;-61
2023/11/28 10:31:54;;;;;;;6.73;3.30;;;;;;;;;;5032949;28;20108;-63
2023/11/28 10:34:19;;;;;;;6.27;3.30;;;;;;;;;;5037017;28;20525;-62
2023/11/28 10:36:45;;;;;;;7.17;3.13;;;;;;;;;;5035075;28;20013;-60
2023/11/28 10:39:12;;;;;;;6.20;3.20;;;;;;;;;;5037276;28;20048;-61
2023/11/28 10:41:38;;;;;;;5.93;3.27;;;;;;;;;;5037150;28;20658;-61
2023/11/28 10:44:04;;;;;;;6.30;3.30;;;;;;;;;;5033414;28;20485;-60
2023/11/28 10:46:32;;;;;;;5.70;2.83;;;;;;;;;;5035248;28;20109;-62
2023/11/28 10:48:58;;;;;;;8.77;3.57;;;;;;;;;;5034406;28;20032;-61
2023/11/28 10:51:23;;;;;;;6.90;3.40;;;;;;;;;;5036959;28;20049;-64
2023/11/28 10:53:50;;;;;;;5.60;3.13;;;;;;;;;;5032862;28;20053;-62
2023/11/28 10:56:17;;;;;;;5.60;3.03;;;;;;;;;;5036845;28;20014;-64
2023/11/28 10:58:45;;;;;;;7.87;3.10;;;;;;;;;;5038344;28;20021;-61
2023/11/28 11:01:10;;;;;;;5.70;3.20;;;;;;;;;;5036014;28;20025;-63
2023/11/28 11:03:38;;;;;;;4.97;2.77;;;;;;;;;;5037383;28;20090;-63
2023/11/28 11:06:05;;;;;;;5.70;2.87;;;;;;;;;;5033946;28;20013;-61
2023/11/28 11:08:30;;;;;;;5.27;2.90;;;;;;;;;;5033831;28;20029;-62
2023/11/28 11:10:56;;;;;;;5.03;2.83;;;;;;;;;;5038886;28;20573;-61
2023/11/28 11:13:35;;;;;;;6.33;3.13;;;;;;;;;;5035290;28;20029;-60
2023/11/28 11:16:19;;;;;;;5.53;3.07;;;;;;;;;;5031971;28;20025;-61
2023/11/28 11:18:46;;;;;;;5.43;3.23;;;;;;;;;;5033840;28;20032;-61
2023/11/28 11:21:20;;;;;;;7.73;3.37;;;;;;;;;;5034902;28;20025;-62
2023/11/28 11:23:46;;;;;;;9.20;4.10;;;;;;;;;;5035451;28;20027;-63
2023/11/28 11:26:12;;;;;;;6.03;3.53;;;;;;;;;;5031353;28;20018;-62
2023/11/28 11:28:37;;;;;;;5.73;3.30;;;;;;;;;;5032403;28;20036;-63
2023/11/28 11:31:10;;;;;;;7.40;3.27;;;;;;;;;;5036672;28;20013;-63
2023/11/28 11:33:36;;;;;;;9.47;3.50;;;;;;;;;;5037659;28;20092;-61
2023/11/28 11:36:08;;;;;;;6.13;3.03;;;;;;;;;;5032871;28;20537;-63
2023/11/28 11:38:33;;;;;;;8.30;3.33;;;;;;;;;;5039302;28;20409;-61
2023/11/28 11:40:59;;;;;;;7.73;3.10;;;;;;;;;;5039526;28;20028;-61
2023/11/28 11:43:27;;;;;;;5.83;3.40;;;;;;;;;;5039912;28;20021;-63
2023/11/28 11:45:53;;;;;;;5.87;3.13;;;;;;;;;;5036677;28;20017;-61
2023/11/28 11:48:30;;;;;;;7.27;3.40;;;;;;;;;;5039433;28;20095;-61
2023/11/28 11:50:55;;;;;;;5.60;3.10;;;;;;;;;;5038090;28;20053;-61
2023/11/28 11:53:20;;;;;;;7.10;3.50;;;;;;;;;;5036482;28;20463;-61
2023/11/28 11:55:46;;;;;;;7.07;3.40;;;;;;;;;;5038645;28;20031;-61
2023/11/28 11:58:14;;;;;;;6.20;3.80;;;;;;;;;;5038131;28;20026;-63
2023/11/28 12:00:40;;;;;;;7.87;4.47;;;;;;;;;;5037880;28;20025;-61
2023/11/28 12:03:07;;;;;;;6.73;3.87;;;;;;;;;;5033470;28;20477;-61
2023/11/28 12:05:33;;;;;;;7.17;4.10;;;;;;;;;;5043077;28;20039;-63
2023/11/28 12:07:59;;;;;;;10.27;4.07;;;;;;;;;;5038809;28;20378;-61
2023/11/28 12:10:25;;;;;;;7.00;4.10;;;;;;;;;;5035134;28;20537;-61
2023/11/28 12:12:50;;;;;;;10.20;4.50;;;;;;;;;;5035472;28;20546;-61
2023/11/28 12:15:17;;;;;;;8.57;4.40;;;;;;;;;;5038102;28;20017;-62
2023/11/28 12:17:42;;;;;;;10.40;4.80;;;;;;;;;;5040588;28;20501;-62
2023/11/28 12:20:08;;;;;;;9.00;4.73;;;;;;;;;;5037237;28;20064;-61
2023/11/28 12:22:34;;;;;;;9.97;4.43;;;;;;;;;;5038181;28;20462;-61
2023/11/28 12:24:59;;;;;;;11.00;4.70;;;;;;;;;;5036036;28;20028;-63
2023/11/28 12:27:25;;;;;;;8.30;4.13;;;;;;;;;;5044991;28;20082;-61
2023/11/28 12:29:50;;;;;;;8.27;4.53;;;;;;;;;;5037646;28;20021;-63
2023/11/28 12:32:16;;;;;;;12.37;4.27;;;;;;;;;;5036158;28;20028;-63
2023/11/28 12:34:41;;;;;;;11.20;4.73;;;;;;;;;;5036144;28;20465;-61
2023/11/28 12:37:07;;;;;;;7.63;4.00;;;;;;;;;;5037184;28;20029;-61
2023/11/28 12:39:33;;;;;;;12.03;4.80;;;;;;;;;;5035425;28;20037;-60
2023/11/28 12:41:58;;;;;;;7.97;4.17;;;;;;;;;;5037493;28;20031;-62
2023/11/28 12:44:31;;;;;;;7.67;3.80;;;;;;;;;;5034072;28;20025;-63
2023/11/28 12:46:58;;;;;;;11.27;4.07;;;;;;;;;;5035881;28;20561;-61
2023/11/28 12:49:24;;;;;;;7.57;3.83;;;;;;;;;;5040555;28;20052;-63
2023/11/28 12:51:50;;;;;;;6.87;3.67;;;;;;;;;;5035876;28;20045;-62
2023/11/28 12:54:17;;;;;;;7.87;3.63;;;;;;;;;;5034870;28;20032;-62
2023/11/28 12:56:55;;;;;;;10.30;3.73;;;;;;;;;;5035503;28;20559;-61
2023/11/28 12:59:23;;;;;;;9.53;3.47;;;;;;;;;;5039400;28;20477;-61
2023/11/28 13:01:49;;;;;;;6.53;3.37;;;;;;;;;;5035475;28;20059;-60
2023/11/28 13:04:15;;;;;;;12.33;4.17;;;;;;;;;;5037947;28;20025;-60
2023/11/28 13:06:42;;;;;;;7.43;3.77;;;;;;;;;;5036735;28;20470;-61
2023/11/28 13:09:07;;;;;;;7.40;3.80;;;;;;;;;;5033980;28;20022;-61
2023/11/28 13:11:33;;;;;;;9.23;4.47;;;;;;;;;;5035735;28;20647;-70
2023/11/28 13:14:00;;;;;;;7.83;4.27;;;;;;;;;;5037604;28;20025;-68
2023/11/28 13:16:25;;;;;;;9.67;4.63;;;;;;;;;;5037257;28;20029;-70
2023/11/28 13:18:50;;;;;;;8.40;4.40;;;;;;;;;;5037256;28;20024;-70
2023/11/28 13:21:16;;;;;;;9.67;5.10;;;;;;;;;;5037492;28;20029;-69
2023/11/28 13:23:41;;;;;;;9.73;4.63;;;;;;;;;;5031369;28;20112;-69
2023/11/28 13:26:07;;;;;;;9.63;5.37;;;;;;;;;;5037613;28;20044;-70
2023/11/28 13:28:33;;;;;;;8.73;4.90;;;;;;;;;;5038596;28;20221;-68
2023/11/28 13:30:59;;;;;;;8.37;4.73;;;;;;;;;;5039534;28;20035;-68
2023/11/28 13:33:26;;;;;;;7.03;4.30;;;;;;;;;;5031920;28;20032;-67
2023/11/28 13:35:52;;;;;;;8.23;4.80;;;;;;;;;;5042273;28;20658;-68
2023/11/28 13:38:17;;;;;;;8.40;4.50;;;;;;;;;;5037912;28;20703;-68
2023/11/28 13:40:45;;;;;;;8.90;4.17;;;;;;;;;;5032896;28;20025;-68
2023/11/28 13:43:10;;;;;;;7.67;3.90;;;;;;;;;;5038507;28;20025;-66
2023/11/28 13:45:35;;;;;;;9.37;4.33;;;;;;;;;;5034403;28;20036;-68
2023/11/28 13:48:03;;;;;;;7.80;4.47;;;;;;;;;;5035934;28;20028;-69
2023/11/28 13:50:29;;;;;;;7.97;4.60;;;;;;;;;;5035027;28;20116;-66
2023/11/28 13:52:54;;;;;;;9.80;4.73;;;;;;;;;;5038419;28;20124;-69
2023/11/28 13:55:19;;;;;;;10.57;3.67;;;;;;;;;;5035567;28;20028;-66
2023/11/28 13:57:45;;;;;;;5.90;3.57;;;;;;;;;;5036117;28;20104;-70
2023/11/28 14:00:11;;;;;;;7.97;4.00;;;;;;;;;;5034642;28;20120;-68
2023/11/28 14:02:37;;;;;;;8.17;4.07;;;;;;;;;;5037408;28;20107;-69
2023/11/28 14:05:02;;;;;;;9.67;4.13;;;;;;;;;;5037013;28;20463;-65
2023/11/28 14:07:28;;;;;;;6.73;3.60;;;;;;;;;;5034766;28;20057;-65
2023/11/28 14:09:53;;;;;;;6.60;3.67;;;;;;;;;;5036246;28;20028;-65
2023/11/28 14:12:18;;;;;;;6.80;3.77;;;;;;;;;;5035078;28;20079;-66
2023/11/28 14:14:44;;;;;;;6.67;3.47;;;;;;;;;;5037866;28;20033;-69
2023/11/28 14:17:10;;;;;;;6.37;3.53;;;;;;;;;;5034684;28;20028;-70
2023/11/28 14:19:36;;;;;;;7.13;3.90;;;;;;;;;;5031394;28;20025;-68
2023/11/28 14:22:01;;;;;;;9.27;3.63;;;;;;;;;;5033904;28;20385;-69
2023/11/28 14:24:27;;;;;;;8.23;3.53;;;;;;;;;;5033612;28;20390;-67
2023/11/28 14:26:53;;;;;;;11.03;3.73;;;;;;;;;;5037052;28;20025;-65
2023/11/28 14:29:18;;;;;;;6.57;3.60;;;;;;;;;;5031914;28;20040;-68
2023/11/28 14:31:43;;;;;;;6.47;3.77;;;;;;;;;;5030756;28;20025;-66
2023/11/28 14:34:08;;;;;;;8.23;3.90;;;;;;;;;;5033758;28;20025;-65
2023/11/28 14:36:34;;;;;;;9.77;4.00;;;;;;;;;;5038382;28;20017;-69
2023/11/28 14:38:59;;;;;;;9.93;4.27;;;;;;;;;;5036656;28;20437;-70
2023/11/28 14:41:25;;;;;;;8.50;4.07;;;;;;;;;;5034076;28;20040;-65
2023/11/28 14:43:50;;;;;;;6.93;3.83;;;;;;;;;;5032538;28;20029;-65
2023/11/28 14:46:15;;;;;;;7.50;3.47;;;;;;;;;;5036332;28;20029;-64
2023/11/28 14:48:40;;;;;;;11.87;4.00;;;;;;;;;;5034543;28;20025;-67
2023/11/28 14:51:06;;;;;;;11.07;3.87;;;;;;;;;;5033046;28;20106;-68
2023/11/28 14:53:32;;;;;;;14.10;4.10;;;;;;;;;;5039984;28;20161;-69
2023/11/28 14:55:57;;;;;;;11.40;4.20;;;;;;;;;;5035244;28;20017;-67
2023/11/28 14:58:23;;;;;;;17.20;4.70;;;;;;;;;;5036452;28;20025;-65
2023/11/28 15:00:50;;;;;;;15.50;5.30;;;;;;;;;;5032994;28;20040;-67
2023/11/28 15:03:16;;;;;;;12.27;5.20;;;;;;;;;;5039557;28;20036;-69
2023/11/28 15:05:41;;;;;;;13.40;4.87;;;;;;;;;;5037882;28;20029;-65
2023/11/28 15:08:08;;;;;;;11.40;4.57;;;;;;;;;;5036891;28;20020;-67
2023/11/28 15:10:34;;;;;;;20.13;8.50;;;;;;;;;;5038235;28;20025;-66
2023/11/28 15:13:00;;;;;;;14.77;6.60;;;;;;;;;;5038611;28;20035;-66
2023/11/28 15:15:25;;;;;;;13.57;5.83;;;;;;;;;;5037495;28;20456;-67
2023/11/28 15:17:50;;;;;;;15.00;5.10;;;;;;;;;;5038407;28;20123;-67
2023/11/28 15:20:16;;;;;;;12.83;4.53;;;;;;;;;;5043275;28;20026;-68
2023/11/28 15:22:41;;;;;;;10.53;4.80;;;;;;;;;;5040249;28;20461;-68
2023/11/28 15:25:07;;;;;;;15.63;4.83;;;;;;;;;;5037036;28;20120;-69
2023/11/28 15:27:32;;;;;;;12.17;4.83;;;;;;;;;;5035811;28;20474;-68
2023/11/28 15:29:58;;;;;;;23.67;5.30;;;;;;;;;;5033571;28;20033;-65
2023/11/28 15:32:24;;;;;;;9.77;5.30;;;;;;;;;;5038305;28;20044;-65
2023/11/28 15:34:50;;;;;;;11.20;5.17;;;;;;;;;;5042739;28;20017;-65
2023/11/28 15:37:15;;;;;;;13.97;5.20;;;;;;;;;;5035640;28;20120;-67
2023/11/28 15:39:40;;;;;;;20.87;8.70;;;;;;;;;;5035590;28;20029;-69
2023/11/28 15:42:05;;;;;;;20.00;12.03;;;;;;;;;;5041208;28;20065;-66
2023/11/28 15:44:31;;;;;;;26.20;14.27;;;;;;;;;;5040007;28;20032;-68
2023/11/28 15:46:56;;;;;;;23.23;12.87;;;;;;;;;;5037339;28;20033;-66
2023/11/28 15:49:22;;;;;;;27.23;14.57;;;;;;;;;;5034011;28;20026;-65
2023/11/28 15:51:48;;;;;;;24.83;14.23;;;;;;;;;;5033813;28;20120;-67
2023/11/28 15:54:14;;;;;;;20.50;10.77;;;;;;;;;;5041476;28;20681;-65
2023/11/28 15:56:39;;;;;;;20.47;10.00;;;;;;;;;;5039351;28;20516;-68
2023/11/28 15:59:05;;;;;;;18.67;7.97;;;;;;;;;;5036354;28;20029;-65
2023/11/28 16:01:30;;;;;;;13.80;6.90;;;;;;;;;;5035536;28;20373;-67
2023/11/28 16:03:56;;;;;;;16.53;6.57;;;;;;;;;;5039568;28;20040;-68
2023/11/28 16:06:21;;;;;;;14.80;6.37;;;;;;;;;;5040462;28;20022;-69
2023/11/28 16:08:46;;;;;;;16.30;7.30;;;;;;;;;;5038573;28;20114;-68
2023/11/28 16:11:13;;;;;;;33.63;12.83;;;;;;;;;;5038921;28;20473;-66
2023/11/28 16:13:38;;;;;;;12.77;6.47;;;;;;;;;;5035358;28;20327;-65
2023/11/28 16:16:04;;;;;;;12.23;6.47;;;;;;;;;;5041522;28;20104;-69
2023/11/28 16:18:29;;;;;;;13.53;6.10;;;;;;;;;;5037107;28;20048;-65
2023/11/28 16:20:55;;;;;;;13.13;6.67;;;;;;;;;;5034360;28;20067;-68
2023/11/28 16:23:21;;;;;;;13.23;6.77;;;;;;;;;;5036122;28;20025;-67
2023/11/28 16:25:48;;;;;;;15.83;8.27;;;;;;;;;;5036741;28;20485;-66
2023/11/28 16:28:13;;;;;;;20.53;8.97;;;;;;;;;;5037918;28;20105;-68
2023/11/28 16:30:39;;;;;;;18.50;9.60;;;;;;;;;;5037476;28;20391;-68
2023/11/28 16:33:04;;;;;;;18.10;9.40;;;;;;;;;;5038536;28;20026;-68
2023/11/28 16:35:30;;;;;;;19.87;9.03;;;;;;;;;;5038669;28;20055;-68
2023/11/28 16:37:55;;;;;;;20.10;9.37;;;;;;;;;;5036549;28;20025;-65
2023/11/28 16:40:20;;;;;;;18.70;8.43;;;;;;;;;;5040290;28;20029;-67
2023/11/28 16:42:46;;;;;;;18.20;8.70;;;;;;;;;;5040531;28;20295;-66
2023/11/28 16:45:12;;;;;;;18.33;9.87;;;;;;;;;;5035175;28;20035;-66
2023/11/28 16:47:38;;;;;;;20.60;9.57;;;;;;;;;;5036565;28;20381;-68
2023/11/28 16:50:03;;;;;;;21.90;10.57;;;;;;;;;;5035716;28;20036;-67
2023/11/28 16:52:29;;;;;;;24.17;12.40;;;;;;;;;;5039639;28;20053;-67
2023/11/28 16:54:54;;;;;;;18.97;9.93;;;;;;;;;;5037624;28;20647;-67
2023/11/28 16:57:20;;;;;;;21.90;10.00;;;;;;;;;;5036070;28;20110;-67
2023/11/28 16:59:45;;;;;;;29.03;11.87;;;;;;;;;;5030156;28;20029;-65
2023/11/28 17:02:10;;;;;;;21.23;10.03;;;;;;;;;;5033114;28;20629;-68
2023/11/28 17:04:36;;;;;;;22.43;10.03;;;;;;;;;;5034618;28;20040;-65
2023/11/28 17:07:02;;;;;;;22.27;9.73;;;;;;;;;;5037081;28;20033;-67
2023/11/28 17:09:28;;;;;;;18.53;9.27;;;;;;;;;;5032839;28;20112;-66
2023/11/28 17:11:53;;;;;;;20.33;9.33;;;;;;;;;;5034007;28;20108;-67
2023/11/28 17:14:18;;;;;;;17.57;8.53;;;;;;;;;;5035868;28;20025;-67
2023/11/28 17:16:43;;;;;;;18.60;8.43;;;;;;;;;;5032108;28;20622;-66
2023/11/28 17:19:09;;;;;;;18.23;7.67;;;;;;;;;;5034038;28;20021;-67
2023/11/28 17:21:34;;;;;;;22.30;7.90;;;;;;;;;;5035720;28;20029;-65
2023/11/28 17:23:59;;;;;;;22.13;8.00;;;;;;;;;;5035143;28;20112;-66
2023/11/28 17:26:25;;;;;;;20.07;8.30;;;;;;;;;;5035440;28;20386;-68
2023/11/28 17:28:51;;;;;;;17.53;8.17;;;;;;;;;;5036544;28;20025;-68
2023/11/28 17:31:19;;;;;;;15.93;7.37;;;;;;;;;;5034096;28;20025;-68
2023/11/28 17:33:44;;;;;;;16.73;7.80;;;;;;;;;;5031518;28;20564;-66
2023/11/28 17:36:09;;;;;;;17.83;7.40;;;;;;;;;;5036419;28;20028;-66
2023/11/28 17:38:35;;;;;;;18.17;7.57;;;;;;;;;;5033133;28;20021;-66
2023/11/28 17:41:00;;;;;;;18.23;7.57;;;;;;;;;;5032231;28;20033;-65
2023/11/28 17:43:26;;;;;;;19.60;7.33;;;;;;;;;;5032887;28;20049;-65
2023/11/28 17:45:51;;;;;;;20.67;7.80;;;;;;;;;;5030692;28;20045;-67